sensor_id;sensor_type;location;lat;lon;timestamp;pressure;altitude;pressure_sealevel;temperature;humidity
70254;BME280;57649;42.968;1.608;2023-02-20T00:01:53;98359.63;;;5.37;100.00
70254;BME280;57649;42.968;1.608;2023-02-20T00:04:19;98360.34;;;5.39;100.00
70254;BME280;57649;42.968;1.608;2023-02-20T00:06:44;98356.22;;;5.35;100.00
70254;BME280;57649;42.968;1.608;2023-02-20T00:09:11;98365.59;;;5.28;100.00
70254;BME280;57649;42.968;1.608;2023-02-20T00:11:36;98366.84;;;5.35;100.00
70254;BME280;57649;42.968;1.608;2023-02-20T00:14:02;98363.00;;;5.39;100.00
70254;BME280;57649;42.968;1.608;2023-02-20T00:16:27;98358.06;;;5.46;100.00
70254;BME280;57649;42.968;1.608;2023-02-20T00:18:53;98353.97;;;5.42;100.00
70254;BME280;57649;42.968;1.608;2023-02-20T00:21:18;98353.00;;;5.43;100.00
70254;BME280;57649;42.968;1.608;2023-02-20T00:23:44;98344.94;;;5.44;99.80
70254;BME280;57649;42.968;1.608;2023-02-20T00:26:11;98346.09;;;5.40;99.76
70254;BME280;57649;42.968;1.608;2023-02-20T00:28:38;98335.56;;;5.51;98.96
70254;BME280;57649;42.968;1.608;2023-02-20T00:31:07;98336.41;;;5.52;98.08
70254;BME280;57649;42.968;1.608;2023-02-20T00:33:35;98332.31;;;5.59;97.46
70254;BME280;57649;42.968;1.608;2023-02-20T00:36:01;98326.53;;;5.65;96.42
70254;BME280;57649;42.968;1.608;2023-02-20T00:38:26;98323.19;;;5.74;96.10
70254;BME280;57649;42.968;1.608;2023-02-20T00:40:52;98323.94;;;5.76;95.54
70254;BME280;57649;42.968;1.608;2023-02-20T00:43:17;98312.47;;;5.76;96.02
70254;BME280;57649;42.968;1.608;2023-02-20T00:45:43;98318.53;;;5.89;95.26
70254;BME280;57649;42.968;1.608;2023-02-20T00:48:08;98311.88;;;5.84;94.54
70254;BME280;57649;42.968;1.608;2023-02-20T00:50:34;98315.50;;;5.83;95.06
70254;BME280;57649;42.968;1.608;2023-02-20T00:52:59;98311.97;;;5.71;95.95
70254;BME280;57649;42.968;1.608;2023-02-20T00:55:25;98311.56;;;5.40;98.03
70254;BME280;57649;42.968;1.608;2023-02-20T00:57:50;98306.06;;;5.19;98.93
70254;BME280;57649;42.968;1.608;2023-02-20T01:00:22;98311.25;;;5.20;100.00
70254;BME280;57649;42.968;1.608;2023-02-20T01:02:47;98304.84;;;4.99;100.00
70254;BME280;57649;42.968;1.608;2023-02-20T01:05:13;98308.44;;;4.98;100.00
70254;BME280;57649;42.968;1.608;2023-02-20T01:07:39;98308.84;;;5.05;100.00
70254;BME280;57649;42.968;1.608;2023-02-20T01:10:05;98300.28;;;5.01;100.00
70254;BME280;57649;42.968;1.608;2023-02-20T01:12:30;98290.06;;;5.08;100.00
70254;BME280;57649;42.968;1.608;2023-02-20T01:14:56;98291.19;;;5.16;100.00
70254;BME280;57649;42.968;1.608;2023-02-20T01:17:21;98282.16;;;5.19;100.00
70254;BME280;57649;42.968;1.608;2023-02-20T01:19:47;98281.31;;;5.18;100.00
70254;BME280;57649;42.968;1.608;2023-02-20T01:22:12;98283.84;;;5.20;100.00
70254;BME280;57649;42.968;1.608;2023-02-20T01:24:38;98277.47;;;5.23;100.00
70254;BME280;57649;42.968;1.608;2023-02-20T01:27:03;98267.06;;;5.19;100.00
70254;BME280;57649;42.968;1.608;2023-02-20T01:29:29;98279.63;;;5.17;100.00
70254;BME280;57649;42.968;1.608;2023-02-20T01:31:54;98266.03;;;5.22;100.00
70254;BME280;57649;42.968;1.608;2023-02-20T01:34:20;98268.31;;;5.27;100.00
70254;BME280;57649;42.968;1.608;2023-02-20T01:36:51;98262.75;;;5.18;100.00
70254;BME280;57649;42.968;1.608;2023-02-20T01:39:18;98266.22;;;5.19;99.41
70254;BME280;57649;42.968;1.608;2023-02-20T01:41:46;98259.66;;;5.36;98.01
70254;BME280;57649;42.968;1.608;2023-02-20T01:44:22;98259.88;;;5.33;98.22
70254;BME280;57649;42.968;1.608;2023-02-20T01:46:50;98264.41;;;5.44;96.92
70254;BME280;57649;42.968;1.608;2023-02-20T01:49:21;98266.94;;;5.45;96.88
70254;BME280;57649;42.968;1.608;2023-02-20T01:51:52;98258.88;;;5.47;96.68
70254;BME280;57649;42.968;1.608;2023-02-20T01:54:22;98264.50;;;5.42;95.93
70254;BME280;57649;42.968;1.608;2023-02-20T01:56:49;98264.31;;;5.21;96.21
70254;BME280;57649;42.968;1.608;2023-02-20T01:59:17;98260.09;;;5.18;96.98
70254;BME280;57649;42.968;1.608;2023-02-20T02:01:44;98252.03;;;5.07;97.37
70254;BME280;57649;42.968;1.608;2023-02-20T02:04:11;98253.13;;;5.05;98.34
70254;BME280;57649;42.968;1.608;2023-02-20T02:06:40;98250.53;;;4.92;99.80
70254;BME280;57649;42.968;1.608;2023-02-20T02:09:20;98252.22;;;4.93;99.80
70254;BME280;57649;42.968;1.608;2023-02-20T02:11:48;98254.75;;;4.94;100.00
70254;BME280;57649;42.968;1.608;2023-02-20T02:14:13;98254.06;;;4.79;100.00
70254;BME280;57649;42.968;1.608;2023-02-20T02:16:54;98250.59;;;4.66;100.00
70254;BME280;57649;42.968;1.608;2023-02-20T02:38:06;98264.53;;;4.57;100.00
70254;BME280;57649;42.968;1.608;2023-02-20T02:40:40;98270.03;;;4.54;100.00
70254;BME280;57649;42.968;1.608;2023-02-20T02:43:41;98254.50;;;4.36;100.00
70254;BME280;57649;42.968;1.608;2023-02-20T02:46:19;98271.16;;;4.26;100.00
70254;BME280;57649;42.968;1.608;2023-02-20T02:48:51;98280.78;;;4.14;100.00
70254;BME280;57649;42.968;1.608;2023-02-20T02:51:22;98271.88;;;4.02;100.00
70254;BME280;57649;42.968;1.608;2023-02-20T02:54:13;98276.34;;;4.01;100.00
70254;BME280;57649;42.968;1.608;2023-02-20T02:56:44;98270.94;;;4.03;100.00
70254;BME280;57649;42.968;1.608;2023-02-20T02:59:13;98273.69;;;4.14;100.00
70254;BME280;57649;42.968;1.608;2023-02-20T03:01:52;98278.75;;;4.17;100.00
70254;BME280;57649;42.968;1.608;2023-02-20T03:04:20;98275.47;;;4.14;100.00
70254;BME280;57649;42.968;1.608;2023-02-20T03:06:52;98274.84;;;4.10;100.00
70254;BME280;57649;42.968;1.608;2023-02-20T03:09:26;98277.09;;;4.03;100.00
70254;BME280;57649;42.968;1.608;2023-02-20T03:11:54;98266.78;;;4.12;100.00
70254;BME280;57649;42.968;1.608;2023-02-20T03:14:26;98273.91;;;4.11;100.00
70254;BME280;57649;42.968;1.608;2023-02-20T03:19:43;98263.72;;;4.18;100.00
70254;BME280;57649;42.968;1.608;2023-02-20T03:22:12;98260.75;;;4.10;100.00
70254;BME280;57649;42.968;1.608;2023-02-20T03:24:42;98263.50;;;4.08;100.00
70254;BME280;57649;42.968;1.608;2023-02-20T03:27:30;98265.94;;;3.98;100.00
70254;BME280;57649;42.968;1.608;2023-02-20T03:30:06;98264.47;;;3.94;100.00
70254;BME280;57649;42.968;1.608;2023-02-20T03:32:32;98266.88;;;3.84;100.00
70254;BME280;57649;42.968;1.608;2023-02-20T03:35:17;98258.84;;;3.86;100.00
70254;BME280;57649;42.968;1.608;2023-02-20T03:38:05;98250.59;;;3.78;100.00
70254;BME280;57649;42.968;1.608;2023-02-20T03:40:51;98247.94;;;3.78;100.00
70254;BME280;57649;42.968;1.608;2023-02-20T03:43:37;98246.72;;;3.56;100.00
70254;BME280;57649;42.968;1.608;2023-02-20T03:46:09;98239.53;;;3.58;100.00
70254;BME280;57649;42.968;1.608;2023-02-20T03:48:46;98235.63;;;3.64;100.00
70254;BME280;57649;42.968;1.608;2023-02-20T03:51:13;98244.19;;;3.67;100.00
70254;BME280;57649;42.968;1.608;2023-02-20T03:53:39;98242.28;;;3.70;100.00
70254;BME280;57649;42.968;1.608;2023-02-20T03:56:13;98246.22;;;3.90;100.00
70254;BME280;57649;42.968;1.608;2023-02-20T03:58:45;98240.19;;;3.88;100.00
70254;BME280;57649;42.968;1.608;2023-02-20T04:01:12;98241.56;;;3.93;99.43
70254;BME280;57649;42.968;1.608;2023-02-20T04:03:43;98237.53;;;4.00;99.09
70254;BME280;57649;42.968;1.608;2023-02-20T04:06:10;98224.91;;;4.17;97.21
70254;BME280;57649;42.968;1.608;2023-02-20T04:08:51;98225.56;;;4.20;96.72
70254;BME280;57649;42.968;1.608;2023-02-20T04:11:31;98229.38;;;4.16;96.29
70254;BME280;57649;42.968;1.608;2023-02-20T04:14:00;98223.84;;;4.07;96.69
70254;BME280;57649;42.968;1.608;2023-02-20T04:16:26;98232.56;;;4.09;96.86
70254;BME280;57649;42.968;1.608;2023-02-20T04:18:52;98230.03;;;4.20;96.50
70254;BME280;57649;42.968;1.608;2023-02-20T04:21:40;98231.06;;;4.04;96.64
70254;BME280;57649;42.968;1.608;2023-02-20T04:24:20;98228.75;;;4.00;97.25
70254;BME280;57649;42.968;1.608;2023-02-20T04:26:47;98238.38;;;4.14;97.02
70254;BME280;57649;42.968;1.608;2023-02-20T04:29:13;98240.94;;;4.15;97.50
70254;BME280;57649;42.968;1.608;2023-02-20T04:31:38;98233.84;;;4.16;97.46
70254;BME280;57649;42.968;1.608;2023-02-20T04:34:04;98231.69;;;4.21;96.74
70254;BME280;57649;42.968;1.608;2023-02-20T04:36:30;98235.72;;;4.27;96.55
70254;BME280;57649;42.968;1.608;2023-02-20T04:38:55;98226.19;;;4.24;95.94
70254;BME280;57649;42.968;1.608;2023-02-20T04:41:21;98235.31;;;4.20;96.47
70254;BME280;57649;42.968;1.608;2023-02-20T04:43:46;98233.84;;;4.16;96.83
70254;BME280;57649;42.968;1.608;2023-02-20T04:46:12;98237.63;;;4.12;97.70
70254;BME280;57649;42.968;1.608;2023-02-20T04:48:37;98238.81;;;4.08;98.11
70254;BME280;57649;42.968;1.608;2023-02-20T04:51:03;98242.41;;;3.81;99.03
70254;BME280;57649;42.968;1.608;2023-02-20T04:53:28;98238.25;;;3.64;99.52
70254;BME280;57649;42.968;1.608;2023-02-20T04:55:54;98256.41;;;3.70;99.49
70254;BME280;57649;42.968;1.608;2023-02-20T04:58:19;98240.63;;;3.94;98.43
70254;BME280;57649;42.968;1.608;2023-02-20T05:00:45;98242.53;;;3.92;96.79
70254;BME280;57649;42.968;1.608;2023-02-20T05:03:10;98238.28;;;3.90;96.30
70254;BME280;57649;42.968;1.608;2023-02-20T05:05:36;98236.50;;;4.03;94.36
70254;BME280;57649;42.968;1.608;2023-02-20T05:08:03;98233.22;;;3.99;94.41
70254;BME280;57649;42.968;1.608;2023-02-20T05:10:31;98239.88;;;3.92;95.74
70254;BME280;57649;42.968;1.608;2023-02-20T05:12:57;98248.03;;;3.89;95.09
70254;BME280;57649;42.968;1.608;2023-02-20T05:15:23;98247.31;;;3.87;94.78
70254;BME280;57649;42.968;1.608;2023-02-20T05:17:49;98241.25;;;3.85;94.42
70254;BME280;57649;42.968;1.608;2023-02-20T05:20:15;98234.59;;;3.92;93.48
70254;BME280;57649;42.968;1.608;2023-02-20T05:22:41;98240.00;;;3.91;93.97
70254;BME280;57649;42.968;1.608;2023-02-20T05:25:07;98232.88;;;3.78;94.58
70254;BME280;57649;42.968;1.608;2023-02-20T05:27:33;98230.56;;;3.74;95.07
70254;BME280;57649;42.968;1.608;2023-02-20T05:29:59;98234.34;;;3.70;95.01
70254;BME280;57649;42.968;1.608;2023-02-20T05:32:27;98238.50;;;3.74;95.33
70254;BME280;57649;42.968;1.608;2023-02-20T05:34:53;98232.56;;;3.57;95.79
70254;BME280;57649;42.968;1.608;2023-02-20T05:37:20;98233.78;;;3.39;97.34
70254;BME280;57649;42.968;1.608;2023-02-20T05:39:46;98226.38;;;3.44;97.80
70254;BME280;57649;42.968;1.608;2023-02-20T05:42:12;98240.13;;;3.36;98.71
70254;BME280;57649;42.968;1.608;2023-02-20T05:44:38;98243.47;;;3.25;99.32
70254;BME280;57649;42.968;1.608;2023-02-20T05:47:04;98246.00;;;3.14;100.00
70254;BME280;57649;42.968;1.608;2023-02-20T05:49:30;98253.84;;;3.16;99.28
70254;BME280;57649;42.968;1.608;2023-02-20T05:51:56;98240.75;;;3.00;100.00
70254;BME280;57649;42.968;1.608;2023-02-20T05:54:23;98242.00;;;2.94;100.00
70254;BME280;57649;42.968;1.608;2023-02-20T05:56:51;98236.63;;;2.96;100.00
70254;BME280;57649;42.968;1.608;2023-02-20T05:59:19;98254.38;;;2.94;100.00
70254;BME280;57649;42.968;1.608;2023-02-20T06:01:45;98239.25;;;2.96;100.00
70254;BME280;57649;42.968;1.608;2023-02-20T06:04:11;98245.06;;;3.15;100.00
70254;BME280;57649;42.968;1.608;2023-02-20T06:06:39;98252.34;;;3.12;100.00
70254;BME280;57649;42.968;1.608;2023-02-20T06:09:06;98252.38;;;3.24;100.00
70254;BME280;57649;42.968;1.608;2023-02-20T06:11:32;98251.94;;;3.18;100.00
70254;BME280;57649;42.968;1.608;2023-02-20T06:13:58;98246.75;;;3.16;100.00
70254;BME280;57649;42.968;1.608;2023-02-20T06:16:26;98256.56;;;3.14;100.00
70254;BME280;57649;42.968;1.608;2023-02-20T06:18:52;98254.69;;;3.16;99.83
70254;BME280;57649;42.968;1.608;2023-02-20T06:21:18;98247.16;;;3.10;100.00
70254;BME280;57649;42.968;1.608;2023-02-20T06:23:45;98259.22;;;3.14;99.71
70254;BME280;57649;42.968;1.608;2023-02-20T06:26:11;98257.41;;;3.15;100.00
70254;BME280;57649;42.968;1.608;2023-02-20T06:28:38;98255.75;;;3.14;100.00
70254;BME280;57649;42.968;1.608;2023-02-20T06:31:08;98256.16;;;3.20;99.13
70254;BME280;57649;42.968;1.608;2023-02-20T06:33:34;98259.78;;;3.19;99.80
70254;BME280;57649;42.968;1.608;2023-02-20T06:36:00;98252.16;;;3.27;98.54
70254;BME280;57649;42.968;1.608;2023-02-20T06:38:26;98259.38;;;3.25;98.96
70254;BME280;57649;42.968;1.608;2023-02-20T06:40:51;98260.06;;;3.15;99.40
70254;BME280;57649;42.968;1.608;2023-02-20T06:43:17;98259.22;;;3.14;100.00
70254;BME280;57649;42.968;1.608;2023-02-20T06:45:43;98270.38;;;3.19;100.00
70254;BME280;57649;42.968;1.608;2023-02-20T06:48:08;98274.59;;;3.22;99.99
70254;BME280;57649;42.968;1.608;2023-02-20T06:50:34;98265.69;;;3.10;99.94
70254;BME280;57649;42.968;1.608;2023-02-20T06:52:59;98265.81;;;3.21;98.10
70254;BME280;57649;42.968;1.608;2023-02-20T06:55:25;98257.38;;;3.02;98.03
70254;BME280;57649;42.968;1.608;2023-02-20T06:57:50;98270.34;;;2.92;99.24
70254;BME280;57649;42.968;1.608;2023-02-20T07:00:16;98274.84;;;2.77;99.38
70254;BME280;57649;42.968;1.608;2023-02-20T07:02:42;98278.63;;;2.73;99.34
70254;BME280;57649;42.968;1.608;2023-02-20T07:05:09;98274.06;;;2.89;100.00
70254;BME280;57649;42.968;1.608;2023-02-20T07:07:35;98278.94;;;2.96;100.00
70254;BME280;57649;42.968;1.608;2023-02-20T07:10:00;98276.34;;;3.08;99.87
70254;BME280;57649;42.968;1.608;2023-02-20T07:12:30;98270.31;;;3.06;99.22
70254;BME280;57649;42.968;1.608;2023-02-20T07:14:56;98270.75;;;3.13;98.82
70254;BME280;57649;42.968;1.608;2023-02-20T07:17:22;98273.66;;;2.96;99.46
70254;BME280;57649;42.968;1.608;2023-02-20T07:19:47;98277.34;;;2.93;98.81
70254;BME280;57649;42.968;1.608;2023-02-20T07:22:13;98277.44;;;2.92;98.81
70254;BME280;57649;42.968;1.608;2023-02-20T07:24:38;98265.16;;;2.91;98.09
70254;BME280;57649;42.968;1.608;2023-02-20T07:27:06;98270.63;;;2.87;98.07
70254;BME280;57649;42.968;1.608;2023-02-20T07:29:31;98275.28;;;2.84;98.33
70254;BME280;57649;42.968;1.608;2023-02-20T07:31:57;98271.56;;;3.01;97.96
70254;BME280;57649;42.968;1.608;2023-02-20T07:34:22;98271.16;;;3.07;98.60
70254;BME280;57649;42.968;1.608;2023-02-20T07:36:48;98270.56;;;3.16;97.62
70254;BME280;57649;42.968;1.608;2023-02-20T07:39:13;98271.66;;;3.26;97.79
70254;BME280;57649;42.968;1.608;2023-02-20T07:41:39;98271.00;;;3.23;97.40
70254;BME280;57649;42.968;1.608;2023-02-20T07:44:05;98271.06;;;3.36;97.63
70254;BME280;57649;42.968;1.608;2023-02-20T07:46:31;98270.25;;;3.48;95.87
70254;BME280;57649;42.968;1.608;2023-02-20T07:49:01;98261.69;;;3.57;92.85
70254;BME280;57649;42.968;1.608;2023-02-20T07:51:27;98258.28;;;3.81;90.28
70254;BME280;57649;42.968;1.608;2023-02-20T07:53:53;98248.69;;;3.93;88.60
70254;BME280;57649;42.968;1.608;2023-02-20T07:56:20;98251.00;;;3.97;87.54
70254;BME280;57649;42.968;1.608;2023-02-20T07:58:47;98254.91;;;4.04;87.84
70254;BME280;57649;42.968;1.608;2023-02-20T08:01:13;98250.34;;;4.07;89.28
70254;BME280;57649;42.968;1.608;2023-02-20T08:03:38;98252.69;;;4.24;89.81
70254;BME280;57649;42.968;1.608;2023-02-20T08:06:04;98238.38;;;4.27;88.85
70254;BME280;57649;42.968;1.608;2023-02-20T08:08:30;98233.81;;;4.41;87.88
70254;BME280;57649;42.968;1.608;2023-02-20T08:10:55;98235.19;;;4.47;85.14
70254;BME280;57649;42.968;1.608;2023-02-20T08:13:21;98230.06;;;4.57;84.05
70254;BME280;57649;42.968;1.608;2023-02-20T08:15:47;98239.06;;;4.67;82.96
70254;BME280;57649;42.968;1.608;2023-02-20T08:18:13;98225.84;;;4.78;81.49
70254;BME280;57649;42.968;1.608;2023-02-20T08:20:39;98236.94;;;4.96;81.23
70254;BME280;57649;42.968;1.608;2023-02-20T08:23:04;98235.13;;;4.97;81.30
70254;BME280;57649;42.968;1.608;2023-02-20T08:25:30;98224.44;;;5.10;81.78
70254;BME280;57649;42.968;1.608;2023-02-20T08:27:57;98223.25;;;5.14;82.36
70254;BME280;57649;42.968;1.608;2023-02-20T08:30:25;98218.59;;;5.29;83.46
70254;BME280;57649;42.968;1.608;2023-02-20T08:32:52;98222.88;;;5.43;80.62
70254;BME280;57649;42.968;1.608;2023-02-20T08:35:19;98222.91;;;5.54;77.90
70254;BME280;57649;42.968;1.608;2023-02-20T08:37:44;98229.91;;;5.55;78.51
70254;BME280;57649;42.968;1.608;2023-02-20T08:40:10;98214.13;;;5.65;81.41
70254;BME280;57649;42.968;1.608;2023-02-20T08:42:36;98222.47;;;5.71;82.48
70254;BME280;57649;42.968;1.608;2023-02-20T08:45:05;98216.22;;;5.84;79.05
70254;BME280;57649;42.968;1.608;2023-02-20T08:47:32;98214.78;;;5.91;76.42
70254;BME280;57649;42.968;1.608;2023-02-20T08:49:57;98210.72;;;5.98;76.93
70254;BME280;57649;42.968;1.608;2023-02-20T08:52:23;98204.56;;;6.20;78.80
70254;BME280;57649;42.968;1.608;2023-02-20T08:54:48;98204.56;;;6.31;74.10
70254;BME280;57649;42.968;1.608;2023-02-20T08:57:15;98202.63;;;6.45;71.77
70254;BME280;57649;42.968;1.608;2023-02-20T08:59:40;98197.16;;;6.69;69.61
70254;BME280;57649;42.968;1.608;2023-02-20T09:02:09;98202.81;;;6.75;70.43
70254;BME280;57649;42.968;1.608;2023-02-20T09:04:42;98200.75;;;6.79;66.21
70254;BME280;57649;42.968;1.608;2023-02-20T09:07:09;98202.81;;;6.87;65.20
70254;BME280;57649;42.968;1.608;2023-02-20T09:09:35;98195.69;;;7.08;63.68
70254;BME280;57649;42.968;1.608;2023-02-20T09:12:00;98185.22;;;7.28;62.85
70254;BME280;57649;42.968;1.608;2023-02-20T09:14:25;98183.00;;;7.33;62.96
70254;BME280;57649;42.968;1.608;2023-02-20T09:16:52;98184.59;;;7.57;63.67
70254;BME280;57649;42.968;1.608;2023-02-20T09:19:17;98193.94;;;7.72;62.53
70254;BME280;57649;42.968;1.608;2023-02-20T09:21:46;98188.16;;;7.88;62.70
70254;BME280;57649;42.968;1.608;2023-02-20T09:24:12;98183.59;;;8.09;64.92
70254;BME280;57649;42.968;1.608;2023-02-20T09:26:38;98180.91;;;8.40;64.49
70254;BME280;57649;42.968;1.608;2023-02-20T09:29:03;98178.81;;;8.84;63.71
70254;BME280;57649;42.968;1.608;2023-02-20T09:31:28;98179.13;;;9.30;60.15
70254;BME280;57649;42.968;1.608;2023-02-20T09:33:54;98165.84;;;9.77;57.08
70254;BME280;57649;42.968;1.608;2023-02-20T09:36:20;98157.13;;;10.23;55.42
70254;BME280;57649;42.968;1.608;2023-02-20T09:38:45;98163.31;;;10.61;53.89
70254;BME280;57649;42.968;1.608;2023-02-20T09:41:55;98162.94;;;10.91;52.03
70254;BME280;57649;42.968;1.608;2023-02-20T09:44:24;98163.59;;;11.21;50.24
70254;BME280;57649;42.968;1.608;2023-02-20T09:46:51;98153.06;;;11.46;49.44
70254;BME280;57649;42.968;1.608;2023-02-20T09:49:24;98153.00;;;11.82;48.23
70254;BME280;57649;42.968;1.608;2023-02-20T09:52:03;98137.81;;;12.17;47.51
70254;BME280;57649;42.968;1.608;2023-02-20T09:54:33;98136.25;;;12.48;47.08
70254;BME280;57649;42.968;1.608;2023-02-20T09:57:02;98138.69;;;12.76;47.85
70254;BME280;57649;42.968;1.608;2023-02-20T09:59:50;98131.38;;;13.11;48.02
70254;BME280;57649;42.968;1.608;2023-02-20T10:02:38;98125.69;;;13.39;48.07
70254;BME280;57649;42.968;1.608;2023-02-20T10:05:18;98116.13;;;13.61;47.36
70254;BME280;57649;42.968;1.608;2023-02-20T10:07:45;98127.34;;;13.81;46.83
70254;BME280;57649;42.968;1.608;2023-02-20T10:18:25;98110.63;;;14.50;45.49
70254;BME280;57649;42.968;1.608;2023-02-20T10:23:50;98105.47;;;15.02;44.18
70254;BME280;57649;42.968;1.608;2023-02-20T10:26:24;98087.63;;;14.78;44.56
70254;BME280;57649;42.968;1.608;2023-02-20T10:28:51;98093.31;;;15.07;44.17
70254;BME280;57649;42.968;1.608;2023-02-20T10:33:53;98085.25;;;15.21;43.04
70254;BME280;57649;42.968;1.608;2023-02-20T10:36:25;98083.38;;;15.45;42.48
70254;BME280;57649;42.968;1.608;2023-02-20T10:38:55;98081.81;;;15.51;43.27
70254;BME280;57649;42.968;1.608;2023-02-20T10:41:29;98086.34;;;15.73;43.10
70254;BME280;57649;42.968;1.608;2023-02-20T10:44:04;98075.44;;;15.67;42.37
70254;BME280;57649;42.968;1.608;2023-02-20T10:46:39;98070.53;;;15.85;42.50
70254;BME280;57649;42.968;1.608;2023-02-20T10:49:14;98070.47;;;16.08;41.78
70254;BME280;57649;42.968;1.608;2023-02-20T10:51:44;98061.41;;;16.31;40.76
70254;BME280;57649;42.968;1.608;2023-02-20T10:54:11;98056.22;;;16.51;40.37
70254;BME280;57649;42.968;1.608;2023-02-20T10:59:27;98049.56;;;16.68;39.64
70254;BME280;57649;42.968;1.608;2023-02-20T11:01:57;98052.94;;;16.92;38.71
70254;BME280;57649;42.968;1.608;2023-02-20T11:04:34;98054.75;;;16.85;38.99
70254;BME280;57649;42.968;1.608;2023-02-20T11:07:19;98036.78;;;17.20;38.50
70254;BME280;57649;42.968;1.608;2023-02-20T11:09:48;98040.06;;;17.37;38.16
70254;BME280;57649;42.968;1.608;2023-02-20T11:12:25;98027.06;;;17.26;36.98
70254;BME280;57649;42.968;1.608;2023-02-20T11:14:55;98025.22;;;17.61;37.04
70254;BME280;57649;42.968;1.608;2023-02-20T11:17:26;98026.53;;;17.37;36.55
70254;BME280;57649;42.968;1.608;2023-02-20T11:19:54;98014.00;;;17.64;36.89
70254;BME280;57649;42.968;1.608;2023-02-20T11:25:25;98004.31;;;18.12;35.46
70254;BME280;57649;42.968;1.608;2023-02-20T11:27:54;97999.94;;;18.17;35.06
70254;BME280;57649;42.968;1.608;2023-02-20T11:32:47;97992.19;;;18.07;34.11
70254;BME280;57649;42.968;1.608;2023-02-20T11:35:21;97995.53;;;18.09;34.71
70254;BME280;57649;42.968;1.608;2023-02-20T11:37:50;97993.09;;;18.21;35.13
70254;BME280;57649;42.968;1.608;2023-02-20T11:40:35;97986.69;;;18.42;33.90
70254;BME280;57649;42.968;1.608;2023-02-20T11:43:18;97976.47;;;18.38;34.50
70254;BME280;57649;42.968;1.608;2023-02-20T11:45:45;97975.78;;;18.22;35.27
70254;BME280;57649;42.968;1.608;2023-02-20T11:48:19;97969.72;;;18.20;36.18
70254;BME280;57649;42.968;1.608;2023-02-20T11:50:48;97972.66;;;18.25;38.32
70254;BME280;57649;42.968;1.608;2023-02-20T11:55:47;97956.00;;;18.35;39.39
70254;BME280;57649;42.968;1.608;2023-02-20T11:58:26;97951.03;;;18.45;39.27
70254;BME280;57649;42.968;1.608;2023-02-20T12:00:54;97943.28;;;18.29;41.72
70254;BME280;57649;42.968;1.608;2023-02-20T12:03:25;97947.31;;;18.46;42.52
70254;BME280;57649;42.968;1.608;2023-02-20T12:05:53;97945.88;;;17.96;43.53
70254;BME280;57649;42.968;1.608;2023-02-20T12:11:18;97937.81;;;18.09;43.59
70254;BME280;57649;42.968;1.608;2023-02-20T12:13:47;97928.84;;;18.08;44.55
70254;BME280;57649;42.968;1.608;2023-02-20T12:24:37;97902.19;;;18.12;44.51
70254;BME280;57649;42.968;1.608;2023-02-20T12:45:39;97871.59;;;18.52;43.26
70254;BME280;57649;42.968;1.608;2023-02-20T12:54:26;97861.38;;;18.34;42.64
70254;BME280;57649;42.968;1.608;2023-02-20T12:59:21;97848.03;;;18.52;41.98
70254;BME280;57649;42.968;1.608;2023-02-20T13:01:50;97850.53;;;18.34;42.23
70254;BME280;57649;42.968;1.608;2023-02-20T13:04:43;97847.19;;;18.45;42.31
70254;BME280;57649;42.968;1.608;2023-02-20T13:07:17;97835.09;;;18.61;41.76
70254;BME280;57649;42.968;1.608;2023-02-20T13:10:02;97838.44;;;18.76;41.51
70254;BME280;57649;42.968;1.608;2023-02-20T13:12:28;97818.00;;;18.67;41.58
70254;BME280;57649;42.968;1.608;2023-02-20T13:20:21;97815.06;;;18.75;41.65
70254;BME280;57649;42.968;1.608;2023-02-20T13:28:14;97794.22;;;18.69;41.35
70254;BME280;57649;42.968;1.608;2023-02-20T13:33:30;97795.69;;;18.58;40.57
70254;BME280;57649;42.968;1.608;2023-02-20T13:35:57;97798.81;;;18.62;40.87
70254;BME280;57649;42.968;1.608;2023-02-20T13:38:25;97792.31;;;18.76;40.98
70254;BME280;57649;42.968;1.608;2023-02-20T13:46:07;97789.41;;;18.91;40.21
70254;BME280;57649;42.968;1.608;2023-02-20T13:48:49;97795.50;;;18.87;40.20
70254;BME280;57649;42.968;1.608;2023-02-20T13:56:46;97791.25;;;18.97;40.59
70254;BME280;57649;42.968;1.608;2023-02-20T13:59:16;97786.28;;;18.94;40.17
70254;BME280;57649;42.968;1.608;2023-02-20T14:02:18;97778.56;;;18.91;39.55
70254;BME280;57649;42.968;1.608;2023-02-20T14:04:53;97780.03;;;18.87;39.43
70254;BME280;57649;42.968;1.608;2023-02-20T14:07:29;97781.69;;;18.88;40.08
70254;BME280;57649;42.968;1.608;2023-02-20T14:10:00;97780.00;;;18.74;40.78
70254;BME280;57649;42.968;1.608;2023-02-20T14:12:26;97768.97;;;18.82;40.86
70254;BME280;57649;42.968;1.608;2023-02-20T14:14:52;97768.53;;;18.98;40.99
70254;BME280;57649;42.968;1.608;2023-02-20T14:17:19;97763.31;;;19.03;39.79
70254;BME280;57649;42.968;1.608;2023-02-20T14:19:48;97771.63;;;19.09;40.67
70254;BME280;57649;42.968;1.608;2023-02-20T14:22:21;97764.53;;;19.08;40.19
70254;BME280;57649;42.968;1.608;2023-02-20T14:27:44;97767.50;;;18.93;40.31
70254;BME280;57649;42.968;1.608;2023-02-20T14:30:17;97755.53;;;19.14;40.97
70254;BME280;57649;42.968;1.608;2023-02-20T14:32:45;97761.97;;;19.19;39.76
70254;BME280;57649;42.968;1.608;2023-02-20T14:40:34;97747.16;;;19.22;41.07
70254;BME280;57649;42.968;1.608;2023-02-20T14:43:03;97749.44;;;19.25;41.55
70254;BME280;57649;42.968;1.608;2023-02-20T14:45:32;97746.91;;;19.30;41.41
70254;BME280;57649;42.968;1.608;2023-02-20T14:47:59;97742.75;;;19.21;41.26
70254;BME280;57649;42.968;1.608;2023-02-20T14:50:31;97744.66;;;19.20;41.19
70254;BME280;57649;42.968;1.608;2023-02-20T14:53:12;97744.41;;;19.29;41.37
70254;BME280;57649;42.968;1.608;2023-02-20T14:55:38;97742.38;;;19.17;41.65
70254;BME280;57649;42.968;1.608;2023-02-20T14:58:14;97738.41;;;19.20;41.89
70254;BME280;57649;42.968;1.608;2023-02-20T15:00:42;97738.88;;;19.03;42.22
70254;BME280;57649;42.968;1.608;2023-02-20T15:03:26;97738.66;;;19.05;43.29
70254;BME280;57649;42.968;1.608;2023-02-20T15:05:53;97735.09;;;19.04;43.16
70254;BME280;57649;42.968;1.608;2023-02-20T15:08:22;97733.00;;;19.13;43.41
70254;BME280;57649;42.968;1.608;2023-02-20T15:10:52;97732.38;;;19.11;43.15
70254;BME280;57649;42.968;1.608;2023-02-20T15:13:22;97733.25;;;19.05;43.17